createdAt,value
2023-05-14T00:00:28.912Z,102039.94
2023-05-14T00:02:55.930Z,102034.66
2023-05-14T00:05:22.725Z,102036.56
2023-05-14T00:07:49.320Z,102030.59
2023-05-14T00:10:17.517Z,102029.31
2023-05-14T00:12:43.998Z,102026.94
2023-05-14T00:15:10.641Z,102027.78
2023-05-14T00:17:38.022Z,102022.34
2023-05-14T00:20:07.088Z,102027.19
2023-05-14T00:22:34.089Z,102021.06
2023-05-14T00:25:00.805Z,102031.88
2023-05-14T00:27:27.489Z,102026.81
2023-05-14T00:29:53.941Z,102028.06
2023-05-14T00:32:20.707Z,102023.16
2023-05-14T00:34:47.169Z,102024.16
2023-05-14T00:37:13.872Z,102019.81
2023-05-14T00:39:40.327Z,102014.31
2023-05-14T00:42:07.160Z,102012.25
2023-05-14T00:44:33.739Z,102013.03
2023-05-14T00:47:00.783Z,102010.84
2023-05-14T00:49:28.509Z,102009.09
2023-05-14T00:51:55.760Z,102013.28
2023-05-14T00:54:22.658Z,102008.41
2023-05-14T00:56:50.821Z,102009.78
2023-05-14T00:59:17.266Z,102013.03
2023-05-14T01:01:43.867Z,102001.75
2023-05-14T01:04:11.840Z,102006.56
2023-05-14T01:06:53.153Z,102012.84
2023-05-14T01:09:29.772Z,102005.94
2023-05-14T01:12:10.054Z,102008.06
2023-05-14T01:14:45.405Z,102011.56
2023-05-14T01:17:15.135Z,102004.84
2023-05-14T01:19:43.830Z,102003.31
2023-05-14T01:22:12.063Z,102004.38
2023-05-14T01:24:39.111Z,102002.41
2023-05-14T01:27:14.709Z,101997.63
2023-05-14T01:29:45.186Z,102003.44
2023-05-14T01:32:13.616Z,102010.66
2023-05-14T01:34:41.840Z,102009.03
2023-05-14T01:37:11.383Z,102018.78
2023-05-14T01:39:38.953Z,102006.78
2023-05-14T01:42:07.225Z,102005.78
2023-05-14T01:44:34.455Z,102009.47
2023-05-14T01:47:01.441Z,102004.78
2023-05-14T01:49:27.901Z,102011.69
2023-05-14T01:51:54.469Z,102012.84
2023-05-14T01:54:21.186Z,102007.25
2023-05-14T01:56:47.607Z,102002.56
2023-05-14T01:59:14.144Z,102003.88
2023-05-14T02:01:40.707Z,102007.75
2023-05-14T02:04:07.533Z,101999.63
2023-05-14T02:06:34.093Z,102010.47
2023-05-14T02:09:00.651Z,102008.88
2023-05-14T02:11:27.085Z,101999.56
2023-05-14T02:13:53.774Z,101997.84
2023-05-14T02:16:20.268Z,102008.94
2023-05-14T02:18:46.785Z,101996.91
2023-05-14T02:21:13.268Z,101999.25
2023-05-14T02:23:41.948Z,102000.75
2023-05-14T02:26:10.292Z,101994.44
2023-05-14T02:28:36.822Z,101992.25
2023-05-14T02:31:03.725Z,101994.88
2023-05-14T02:33:30.264Z,101983.56
2023-05-14T02:35:56.756Z,101987.09
2023-05-14T02:38:23.526Z,101991.94
2023-05-14T02:40:50.087Z,101986.53
2023-05-14T02:43:16.521Z,101980.13
2023-05-14T02:45:43.063Z,101977.44
2023-05-14T02:48:09.498Z,101979.75
2023-05-14T02:50:36.076Z,101983.97
2023-05-14T02:53:02.588Z,101984.84
2023-05-14T02:55:29.178Z,101986.16
2023-05-14T02:57:56.725Z,101978.78
2023-05-14T03:00:23.800Z,101979.88
2023-05-14T03:02:50.916Z,101977.16
2023-05-14T03:05:17.942Z,101985.97
2023-05-14T03:07:44.469Z,101981.53
2023-05-14T03:10:11.216Z,101981.78
2023-05-14T03:12:37.701Z,101981.88
2023-05-14T03:15:04.420Z,101986.72
2023-05-14T03:17:30.872Z,101983.75
2023-05-14T03:19:57.384Z,101978.47
2023-05-14T03:22:23.840Z,101982.69
2023-05-14T03:24:50.284Z,101982.81
2023-05-14T03:27:16.716Z,101984.72
2023-05-14T03:29:43.382Z,101984.72
2023-05-14T03:32:09.968Z,101986.41
2023-05-14T03:34:36.888Z,101984.59
2023-05-14T03:37:03.503Z,101984.03
2023-05-14T03:39:30.284Z,101979.34
2023-05-14T03:41:58.841Z,101980.19
2023-05-14T03:44:25.479Z,101985.22
2023-05-14T03:46:52.365Z,101975.88
2023-05-14T03:49:19.164Z,101978.63
2023-05-14T03:51:45.680Z,101972.50
2023-05-14T03:54:12.115Z,101974.19
2023-05-14T03:56:38.565Z,101974.44
2023-05-14T03:59:05.324Z,101965.56
2023-05-14T04:01:32.312Z,101970.84
2023-05-14T04:03:58.965Z,101972.84
2023-05-14T04:06:26.102Z,101975.97
2023-05-14T04:08:52.540Z,101975.63
2023-05-14T04:11:18.976Z,101973.22
2023-05-14T04:13:45.565Z,101971.94
2023-05-14T04:16:11.992Z,101974.44
2023-05-14T04:18:38.778Z,101974.44
2023-05-14T04:21:05.402Z,101982.84
2023-05-14T04:23:31.967Z,101982.34
2023-05-14T04:25:58.946Z,101978.59
2023-05-14T04:28:25.789Z,101974.97
2023-05-14T04:30:52.428Z,101978.88
2023-05-14T04:33:19.017Z,101974.59
2023-05-14T04:35:46.126Z,101974.66
2023-05-14T04:38:14.177Z,101984.25
2023-05-14T04:40:41.490Z,101985.72
2023-05-14T04:43:08.211Z,101976.22
2023-05-14T04:45:34.819Z,101977.56
2023-05-14T04:48:02.272Z,101968.63
2023-05-14T04:50:28.702Z,101968.25
2023-05-14T04:52:55.953Z,101976.91
2023-05-14T04:55:22.907Z,101974.88
2023-05-14T04:57:49.345Z,101971.25
2023-05-14T05:00:17.315Z,101976.16
2023-05-14T05:02:43.953Z,101980.94
2023-05-14T05:05:10.661Z,101984.53
2023-05-14T05:07:37.079Z,101978.13
2023-05-14T05:10:03.849Z,101973.50
2023-05-14T05:12:30.460Z,101975.31
2023-05-14T05:14:57.769Z,101969.13
2023-05-14T05:17:25.155Z,101976.22
2023-05-14T05:19:51.712Z,101973.88
2023-05-14T05:22:20.339Z,101967.81
2023-05-14T05:24:47.994Z,101968.91
2023-05-14T05:27:15.854Z,101975.09
2023-05-14T05:29:42.298Z,101975.75
2023-05-14T05:32:09.029Z,101976.53
2023-05-14T05:34:36.323Z,101976.63
2023-05-14T05:37:03.207Z,101974.25
2023-05-14T05:39:34.568Z,101989.28
2023-05-14T05:42:04.743Z,101984.06
2023-05-14T05:44:31.199Z,101981.81
2023-05-14T05:46:57.835Z,101980.63
2023-05-14T05:49:24.529Z,101982.28
2023-05-14T05:51:51.210Z,101984.06
2023-05-14T05:54:17.748Z,101979.81
2023-05-14T05:56:44.297Z,101982.28
2023-05-14T05:59:10.732Z,101979.75
2023-05-14T06:01:37.409Z,101982.38
2023-05-14T06:04:06.127Z,101973.75
2023-05-14T06:06:33.046Z,101977.13
2023-05-14T06:08:59.505Z,101981.44
2023-05-14T06:11:26.710Z,101980.28
2023-05-14T06:13:53.444Z,101980.84
2023-05-14T06:16:20.158Z,101986.22
2023-05-14T06:18:47.042Z,101984.09
2023-05-14T06:21:13.625Z,101974.97
2023-05-14T06:23:40.996Z,101974.75
2023-05-14T06:26:07.605Z,101978.22
2023-05-14T06:28:34.043Z,101976.16
2023-05-14T06:31:00.785Z,101983.50
2023-05-14T06:33:30.955Z,101985.91
2023-05-14T06:36:02.650Z,101981.97
2023-05-14T06:38:29.100Z,101984.34
2023-05-14T06:40:55.667Z,101983.72
2023-05-14T06:43:22.270Z,101984.81
2023-05-14T06:45:49.924Z,101981.91
2023-05-14T06:48:18.780Z,101978.81
2023-05-14T06:50:46.556Z,101984.66
2023-05-14T06:53:13.135Z,101969.72
2023-05-14T06:55:40.190Z,101978.41
2023-05-14T06:58:07.890Z,101958.44
2023-05-14T07:00:34.666Z,101968.28
2023-05-14T07:03:01.178Z,101964.97
2023-05-14T07:05:27.863Z,101963.81
2023-05-14T07:07:54.320Z,101960.66
2023-05-14T07:10:20.882Z,101955.03
2023-05-14T07:12:47.783Z,101962.19
2023-05-14T07:15:14.347Z,101963.53
2023-05-14T07:17:41.274Z,101958.03
2023-05-14T07:20:08.213Z,101950.84
2023-05-14T07:22:34.770Z,101945.47
2023-05-14T07:25:01.297Z,101944.59
2023-05-14T07:27:27.827Z,101945.06
2023-05-14T07:29:54.374Z,101940.25
2023-05-14T07:32:21.002Z,101940.53
2023-05-14T07:34:47.487Z,101941.88
2023-05-14T07:37:13.990Z,101934.06
2023-05-14T07:39:41.630Z,101932.66
2023-05-14T07:42:08.126Z,101944.03
2023-05-14T07:44:34.546Z,101927.66
2023-05-14T07:47:01.176Z,101923.22
2023-05-14T07:49:27.693Z,101922.56
2023-05-14T07:51:54.258Z,101933.03
2023-05-14T07:54:20.795Z,101921.78
2023-05-14T07:56:47.355Z,101929.03
2023-05-14T07:59:13.789Z,101919.41
2023-05-14T08:01:40.680Z,101923.00
2023-05-14T08:04:07.541Z,101910.41
2023-05-14T08:06:34.304Z,101901.66
2023-05-14T08:09:00.738Z,101898.91
2023-05-14T08:11:27.333Z,101904.69
2023-05-14T08:13:53.757Z,101897.75
2023-05-14T08:16:20.352Z,101906.75
2023-05-14T08:18:47.060Z,101897.34
2023-05-14T08:21:13.699Z,101889.78
2023-05-14T08:23:40.339Z,101890.28
2023-05-14T08:26:07.199Z,101891.25
2023-05-14T08:28:33.567Z,101878.41
2023-05-14T08:31:00.415Z,101888.94
2023-05-14T08:33:26.883Z,101879.22
2023-05-14T08:35:53.994Z,101869.09
2023-05-14T08:38:20.614Z,101882.78
2023-05-14T08:41:06.445Z,101866.41
2023-05-14T08:43:50.405Z,101865.84
2023-05-14T08:46:18.061Z,101863.94
2023-05-14T08:48:48.973Z,101865.25
2023-05-14T08:51:15.531Z,101864.38
2023-05-14T08:53:42.058Z,101862.34
2023-05-14T08:56:09.403Z,101858.69
2023-05-14T08:58:35.839Z,101856.66
2023-05-14T09:01:02.533Z,101849.00
2023-05-14T09:03:30.096Z,101857.19
2023-05-14T09:05:59.991Z,101853.28
2023-05-14T09:08:26.751Z,101859.53
2023-05-14T09:10:53.235Z,101841.53
2023-05-14T09:13:19.629Z,101851.47
2023-05-14T09:15:48.324Z,101836.56
2023-05-14T09:18:14.779Z,101844.50
2023-05-14T09:20:41.587Z,101845.25
2023-05-14T09:23:07.985Z,101831.59
2023-05-14T09:25:34.459Z,101823.97
2023-05-14T09:28:05.943Z,101833.69
2023-05-14T09:30:34.118Z,101826.91
2023-05-14T09:33:00.735Z,101826.22
2023-05-14T09:35:27.320Z,101833.09
2023-05-14T09:37:55.367Z,101816.63
2023-05-14T09:40:24.374Z,101804.44
2023-05-14T09:42:51.454Z,101815.09
2023-05-14T09:45:18.140Z,101806.19
2023-05-14T09:47:45.115Z,101809.31
2023-05-14T09:50:12.354Z,101799.03
2023-05-14T09:52:39.405Z,101809.38
2023-05-14T09:55:06.581Z,101793.69
2023-05-14T09:57:33.594Z,101791.69
2023-05-14T10:00:00.386Z,101798.44
2023-05-14T10:02:36.779Z,101793.75
2023-05-14T10:05:06.380Z,101800.19
2023-05-14T10:07:42.375Z,101778.97
2023-05-14T10:10:13.016Z,101789.19
2023-05-14T10:12:40.572Z,101773.91
2023-05-14T10:15:15.394Z,101770.19
2023-05-14T10:17:47.512Z,101768.72
2023-05-14T10:20:15.622Z,101768.31
2023-05-14T10:22:42.129Z,101768.72
2023-05-14T10:25:09.574Z,101774.94
2023-05-14T10:27:36.501Z,101773.25
2023-05-14T10:30:06.402Z,101759.63
2023-05-14T10:32:33.128Z,101761.47
2023-05-14T10:35:01.633Z,101773.31
2023-05-14T10:37:29.979Z,101762.94
2023-05-14T10:40:02.523Z,101758.59
2023-05-14T10:42:35.740Z,101751.69
2023-05-14T10:45:07.244Z,101754.50
2023-05-14T10:47:38.686Z,101760.66
2023-05-14T10:50:08.004Z,101748.41
2023-05-14T10:52:35.396Z,101738.72
2023-05-14T10:55:04.210Z,101756.50
2023-05-14T10:57:32.089Z,101743.75
2023-05-14T11:00:00.288Z,101736.59
2023-05-14T11:02:29.360Z,101742.69
2023-05-14T11:04:59.341Z,101733.50
2023-05-14T11:07:45.906Z,101725.28
2023-05-14T11:10:14.230Z,101730.91
2023-05-14T11:12:43.087Z,101716.06
2023-05-14T11:15:17.763Z,101719.78
2023-05-14T11:17:45.453Z,101717.06
2023-05-14T11:20:12.728Z,101710.53
2023-05-14T11:22:40.994Z,101708.88
2023-05-14T11:25:08.665Z,101709.69
2023-05-14T11:27:36.634Z,101701.50
2023-05-14T11:30:04.273Z,101694.91
2023-05-14T11:32:33.923Z,101698.53
2023-05-14T11:35:00.564Z,101694.59
2023-05-14T11:37:27.020Z,101693.28
2023-05-14T11:39:55.667Z,101697.06
2023-05-14T11:42:22.504Z,101700.59
2023-05-14T11:44:51.581Z,101704.13
2023-05-14T11:47:19.630Z,101708.25
2023-05-14T11:49:46.620Z,101705.47
2023-05-14T11:52:15.335Z,101713.25
2023-05-14T11:54:44.099Z,101696.41
2023-05-14T11:57:19.439Z,101674.31
2023-05-14T11:59:48.110Z,101682.19
2023-05-14T12:02:17.584Z,101673.78
2023-05-14T12:04:49.210Z,101671.81
2023-05-14T12:07:16.385Z,101667.63
2023-05-14T12:09:49.090Z,101673.41
2023-05-14T12:12:19.077Z,101669.19
2023-05-14T12:14:46.663Z,101665.06
2023-05-14T12:17:18.031Z,101654.69
2023-05-14T12:19:45.952Z,101660.53
2023-05-14T12:22:15.459Z,101657.56
2023-05-14T12:24:43.622Z,101656.03
2023-05-14T12:27:10.694Z,101653.47
2023-05-14T12:29:41.160Z,101648.63
2023-05-14T12:32:10.059Z,101642.53
2023-05-14T12:34:37.980Z,101638.06
2023-05-14T12:37:05.803Z,101626.78
2023-05-14T12:39:33.734Z,101633.50
2023-05-14T12:42:00.449Z,101634.84
2023-05-14T12:44:26.972Z,101620.75
2023-05-14T12:46:54.013Z,101620.06
2023-05-14T12:49:20.534Z,101630.41
2023-05-14T12:51:47.151Z,101625.47
2023-05-14T12:54:15.792Z,101626.94
2023-05-14T12:56:42.657Z,101619.59
2023-05-14T12:59:09.539Z,101613.13
2023-05-14T13:01:37.625Z,101608.97
2023-05-14T13:04:05.421Z,101608.72
2023-05-14T13:06:32.637Z,101602.78
2023-05-14T13:09:01.652Z,101604.69
2023-05-14T13:11:30.335Z,101589.84
2023-05-14T13:13:56.830Z,101593.94
2023-05-14T13:16:23.477Z,101593.44
2023-05-14T13:18:50.042Z,101585.66
2023-05-14T13:21:16.569Z,101591.88
2023-05-14T13:23:42.972Z,101585.88
2023-05-14T13:26:09.812Z,101574.38
2023-05-14T13:28:36.200Z,101580.47
2023-05-14T13:31:11.828Z,101581.31
2023-05-14T13:33:43.300Z,101575.88
2023-05-14T13:36:11.770Z,101586.97
2023-05-14T13:38:38.356Z,101584.53
2023-05-14T13:41:05.750Z,101582.91
2023-05-14T13:43:34.316Z,101571.72
2023-05-14T13:46:01.548Z,101575.72
2023-05-14T13:48:28.087Z,101557.16
2023-05-14T13:50:55.105Z,101554.94
2023-05-14T13:53:23.051Z,101551.25
2023-05-14T13:55:50.614Z,101549.31
2023-05-14T13:58:17.252Z,101544.53
2023-05-14T14:00:43.812Z,101555.19
2023-05-14T14:03:10.372Z,101547.72
2023-05-14T14:05:37.059Z,101547.53
2023-05-14T14:08:17.801Z,101527.59
2023-05-14T14:10:49.958Z,101536.47
2023-05-14T14:13:16.478Z,101535.53
2023-05-14T14:15:43.712Z,101530.13
2023-05-14T14:18:10.252Z,101522.47
2023-05-14T14:20:37.027Z,101531.19
2023-05-14T14:23:03.430Z,101537.28
2023-05-14T14:25:31.064Z,101529.47
2023-05-14T14:27:57.498Z,101529.44
2023-05-14T14:30:24.231Z,101523.22
2023-05-14T14:32:50.853Z,101527.28
2023-05-14T14:35:19.007Z,101521.75
2023-05-14T14:37:49.115Z,101508.34
2023-05-14T14:40:16.719Z,101509.09
2023-05-14T14:42:43.742Z,101506.09
2023-05-14T14:45:11.289Z,101508.97
2023-05-14T14:47:37.735Z,101510.53
2023-05-14T14:50:05.010Z,101500.25
2023-05-14T14:52:31.430Z,101505.03
2023-05-14T14:54:58.197Z,101501.63
2023-05-14T14:57:24.711Z,101497.88
2023-05-14T14:59:51.279Z,101496.16
2023-05-14T15:02:17.710Z,101495.22
2023-05-14T15:04:44.377Z,101494.41
2023-05-14T15:07:11.117Z,101491.22
2023-05-14T15:09:37.621Z,101483.56
2023-05-14T15:12:04.410Z,101487.31
2023-05-14T15:14:31.016Z,101485.84
2023-05-14T15:16:57.492Z,101488.69
2023-05-14T15:19:23.999Z,101478.34
2023-05-14T15:21:50.478Z,101484.94
2023-05-14T15:24:16.958Z,101481.38
2023-05-14T15:26:43.384Z,101477.66
2023-05-14T15:29:09.912Z,101474.34
2023-05-14T15:31:36.482Z,101476.63
2023-05-14T15:34:03.670Z,101465.91
2023-05-14T15:36:30.776Z,101459.22
2023-05-14T15:38:57.268Z,101470.97
2023-05-14T15:41:25.422Z,101474.97
2023-05-14T15:43:52.028Z,101460.81
2023-05-14T15:46:18.537Z,101469.13
2023-05-14T15:48:45.511Z,101462.75
2023-05-14T15:51:12.590Z,101456.97
2023-05-14T15:53:39.363Z,101460.63
2023-05-14T15:56:06.125Z,101449.97
2023-05-14T15:58:32.581Z,101446.66
2023-05-14T16:00:59.016Z,101455.13
2023-05-14T16:03:25.776Z,101457.72
2023-05-14T16:05:52.385Z,101447.78
2023-05-14T16:08:18.891Z,101452.19
2023-05-14T16:10:45.389Z,101449.84
2023-05-14T16:13:11.973Z,101430.38
2023-05-14T16:15:39.739Z,101446.53
2023-05-14T16:18:06.423Z,101442.91
2023-05-14T16:20:32.833Z,101446.38
2023-05-14T16:22:59.512Z,101441.97
2023-05-14T16:25:26.103Z,101439.38
2023-05-14T16:27:52.637Z,101439.19
2023-05-14T16:30:19.039Z,101439.38
2023-05-14T16:32:49.327Z,101442.69
2023-05-14T16:35:16.752Z,101437.28
2023-05-14T16:37:43.408Z,101437.34
2023-05-14T16:40:11.713Z,101440.06
2023-05-14T16:42:38.749Z,101442.28
2023-05-14T16:45:05.566Z,101436.69
2023-05-14T16:47:32.057Z,101447.81
2023-05-14T16:49:58.751Z,101436.50
2023-05-14T16:52:25.151Z,101438.41
2023-05-14T16:54:51.710Z,101438.28
2023-05-14T16:57:18.200Z,101441.56
2023-05-14T16:59:44.861Z,101426.28
2023-05-14T17:02:11.276Z,101433.25
2023-05-14T17:04:41.825Z,101427.69
2023-05-14T17:07:08.400Z,101438.63
2023-05-14T17:09:35.153Z,101437.47
2023-05-14T17:12:01.610Z,101440.41
2023-05-14T17:14:28.082Z,101434.66
2023-05-14T17:16:54.744Z,101429.75
2023-05-14T17:19:21.442Z,101426.16
2023-05-14T17:21:47.831Z,101423.44
2023-05-14T17:24:14.271Z,101432.19
2023-05-14T17:26:40.696Z,101433.41
2023-05-14T17:29:07.371Z,101429.13
2023-05-14T17:31:34.351Z,101426.66
2023-05-14T17:34:00.982Z,101427.78
2023-05-14T17:36:28.496Z,101431.31
2023-05-14T17:38:55.316Z,101428.03
2023-05-14T17:41:21.741Z,101431.53
2023-05-14T17:43:48.328Z,101438.16
2023-05-14T17:46:14.775Z,101433.03
2023-05-14T17:48:41.415Z,101440.72
2023-05-14T17:51:07.831Z,101439.06
2023-05-14T17:53:34.292Z,101446.72
2023-05-14T17:56:00.864Z,101446.50
2023-05-14T17:58:27.636Z,101438.22
2023-05-14T18:00:54.099Z,101439.66
2023-05-14T18:03:20.701Z,101441.28
2023-05-14T18:05:47.382Z,101443.78
2023-05-14T18:08:14.905Z,101439.66
2023-05-14T18:10:41.327Z,101450.38
2023-05-14T18:13:07.807Z,101452.63
2023-05-14T18:15:36.134Z,101445.81
2023-05-14T18:18:02.970Z,101451.16
2023-05-14T18:20:29.388Z,101451.13
2023-05-14T18:22:55.828Z,101459.81
2023-05-14T18:25:22.352Z,101454.84
2023-05-14T18:27:49.148Z,101452.34
2023-05-14T18:30:15.878Z,101462.22
2023-05-14T18:32:44.308Z,101461.53
2023-05-14T18:35:12.223Z,101467.88
2023-05-14T18:37:38.750Z,101469.56
2023-05-14T18:40:06.940Z,101468.63
2023-05-14T18:42:34.049Z,101473.19
2023-05-14T18:45:00.782Z,101476.44
2023-05-14T18:47:27.456Z,101476.59
2023-05-14T18:49:55.822Z,101479.19
2023-05-14T18:52:22.796Z,101476.50
2023-05-14T18:54:50.873Z,101476.88
2023-05-14T18:57:17.570Z,101476.81
2023-05-14T18:59:44.001Z,101476.84
2023-05-14T19:02:10.800Z,101481.84
2023-05-14T19:04:50.621Z,101485.69
2023-05-14T19:07:18.087Z,101481.78
2023-05-14T19:09:44.490Z,101482.75
2023-05-14T19:12:10.948Z,101498.13
2023-05-14T19:14:37.556Z,101482.38
2023-05-14T19:17:04.653Z,101489.63
2023-05-14T19:19:31.357Z,101486.44
2023-05-14T19:21:57.744Z,101485.75
2023-05-14T19:24:24.703Z,101485.13
2023-05-14T19:26:51.251Z,101485.63
2023-05-14T19:29:17.713Z,101481.19
2023-05-14T19:31:44.200Z,101485.84
2023-05-14T19:34:10.904Z,101482.34
2023-05-14T19:36:37.340Z,101491.66
2023-05-14T19:39:04.116Z,101490.75
2023-05-14T19:41:30.653Z,101486.59
2023-05-14T19:43:57.115Z,101487.69
2023-05-14T19:46:23.635Z,101486.19
2023-05-14T19:48:50.321Z,101486.91
2023-05-14T19:51:16.921Z,101488.09
2023-05-14T19:53:43.551Z,101493.69
2023-05-14T19:56:10.061Z,101491.91
2023-05-14T19:58:36.662Z,101499.34
2023-05-14T20:01:03.202Z,101502.59
2023-05-14T20:03:30.079Z,101499.31
2023-05-14T20:05:56.665Z,101502.03
2023-05-14T20:08:23.176Z,101511.75
2023-05-14T20:10:49.814Z,101512.47
2023-05-14T20:13:16.307Z,101510.81
2023-05-14T20:15:43.168Z,101511.16
2023-05-14T20:18:09.715Z,101509.56
2023-05-14T20:20:36.717Z,101513.06
2023-05-14T20:23:03.538Z,101513.94
2023-05-14T20:25:30.283Z,101511.28
2023-05-14T20:27:56.954Z,101517.97
2023-05-14T20:30:23.974Z,101515.31
2023-05-14T20:32:51.216Z,101502.44
2023-05-14T20:35:17.969Z,101501.13
2023-05-14T20:37:44.569Z,101498.28
2023-05-14T20:40:14.041Z,101503.50
2023-05-14T20:42:40.623Z,101502.88
2023-05-14T20:45:07.739Z,101506.38
2023-05-14T20:47:35.608Z,101503.75
2023-05-14T20:50:02.264Z,101498.28
2023-05-14T20:52:28.806Z,101492.47
2023-05-14T20:54:55.430Z,101487.13
2023-05-14T20:57:22.667Z,101493.16
2023-05-14T20:59:49.138Z,101494.69
2023-05-14T21:02:15.799Z,101487.19
2023-05-14T21:04:42.849Z,101487.91
2023-05-14T21:07:09.428Z,101486.41
2023-05-14T21:09:35.837Z,101481.25
2023-05-14T21:12:02.270Z,101478.28
2023-05-14T21:14:28.726Z,101476.09
2023-05-14T21:16:55.376Z,101480.44
2023-05-14T21:19:22.848Z,101481.94
2023-05-14T21:21:49.449Z,101483.97
2023-05-14T21:24:16.750Z,101472.97
2023-05-14T21:26:43.640Z,101482.13
2023-05-14T21:29:10.981Z,101474.16
2023-05-14T21:31:37.480Z,101478.00
2023-05-14T21:34:03.940Z,101480.47
2023-05-14T21:36:31.166Z,101478.31
2023-05-14T21:38:57.585Z,101469.34
2023-05-14T21:41:24.044Z,101472.97
2023-05-14T21:43:50.554Z,101465.50
2023-05-14T21:46:17.027Z,101469.31
2023-05-14T21:48:43.598Z,101465.16
2023-05-14T21:51:11.321Z,101466.66
2023-05-14T21:53:37.737Z,101465.66
2023-05-14T21:56:04.668Z,101463.34
2023-05-14T21:58:31.090Z,101463.94
2023-05-14T22:00:57.922Z,101457.28
2023-05-14T22:03:24.520Z,101462.25
2023-05-14T22:05:51.663Z,101457.13
2023-05-14T22:08:18.080Z,101462.56
2023-05-14T22:10:45.375Z,101455.75
2023-05-14T22:13:11.773Z,101453.59
2023-05-14T22:15:38.461Z,101450.94
2023-05-14T22:18:04.974Z,101448.75
2023-05-14T22:20:31.556Z,101451.53
2023-05-14T22:22:58.103Z,101448.97
2023-05-14T22:25:24.985Z,101443.88
2023-05-14T22:27:51.682Z,101448.34
2023-05-14T22:30:18.310Z,101446.00
2023-05-14T22:32:44.824Z,101447.19
2023-05-14T22:35:11.616Z,101443.16
2023-05-14T22:37:38.140Z,101439.00
2023-05-14T22:40:08.548Z,101440.16
2023-05-14T22:42:34.969Z,101438.75
2023-05-14T22:45:01.635Z,101433.13
2023-05-14T22:47:28.111Z,101428.16
2023-05-14T22:49:54.698Z,101427.16
2023-05-14T22:52:21.110Z,101426.13
2023-05-14T22:54:50.836Z,101418.44
2023-05-14T22:57:17.804Z,101417.75
2023-05-14T22:59:44.268Z,101418.28
2023-05-14T23:02:10.930Z,101407.16
2023-05-14T23:04:37.514Z,101409.19
2023-05-14T23:07:04.172Z,101406.63
2023-05-14T23:09:30.787Z,101404.31
2023-05-14T23:11:57.235Z,101397.81
2023-05-14T23:14:23.908Z,101392.97
2023-05-14T23:16:50.423Z,101395.56
2023-05-14T23:19:17.285Z,101393.59
2023-05-14T23:21:43.822Z,101390.94
2023-05-14T23:24:10.374Z,101390.63
2023-05-14T23:26:36.954Z,101391.88
2023-05-14T23:29:03.515Z,101387.91
2023-05-14T23:31:30.295Z,101378.75
2023-05-14T23:33:56.975Z,101375.22
2023-05-14T23:36:23.572Z,101374.47
2023-05-14T23:38:50.232Z,101370.84
2023-05-14T23:41:16.731Z,101367.31
2023-05-14T23:43:43.134Z,101370.78
2023-05-14T23:46:10.325Z,101363.97
2023-05-14T23:48:37.002Z,101358.75
2023-05-14T23:51:03.907Z,101355.44
2023-05-14T23:53:30.318Z,101357.09
2023-05-14T23:55:57.049Z,101355.19
2023-05-14T23:58:23.790Z,101355.75
